Terminal Aerodrome Forecast
Issued by NWS Sioux Falls, SD

Home | Current Version | Previous Version | Text Only | Print | Product List | Glossary On
Versions: 1 2 3 4 5 6 7 8 9 10 11 12 13
000
FTUS43 KFSD 131700
TAFSUX
TAF
KSUX 131720Z 1318/1418 01022G31KT 6SM -SHRA OVC015
     FM132000 36023G33KT 1SM -SN OVC010
      TEMPO 1320/1321 5SM -RASN OVC015
     FM132300 36023G33KT 4SM -SN OVC015
     FM140100 35020G31KT P6SM OVC025
     FM140400 34017G24KT P6SM OVC120
     FM141500 34015G23KT P6SM SCT050=

USA.gov is the U.S. government's official web portal to all federal, state and local government web resources and services.